Time;durP1;ratioP1;P1;durP2;ratioP2;P2;SDS_P1;SDS_P2;PMS_P1;PMS_P2;Temp;Humidity;BMP_temperature;BMP_pressure;BME280_temperature;BME280_humidity;BME280_pressure;Samples;Min_cycle;Max_cycle;Signal;HPM_P1;HPM_P2
2021/12/08 00:01:51;;;;;;;6.32;3.03;;;;;;;4.48;93.18;99191.41;5094548;28;20027;-67
2021/12/08 00:04:17;;;;;;;5.95;3.10;;;;;;;4.50;93.53;99190.56;5094644;28;20031;-68
2021/12/08 00:06:42;;;;;;;5.95;2.65;;;;;;;4.53;93.86;99193.19;5094530;28;20111;-67
2021/12/08 00:10:15;;;;;;;5.65;2.85;;;;;;;4.54;93.77;99186.25;5094241;28;20085;-68
2021/12/08 00:14:51;;;;;;;7.07;3.10;;;;;;;4.62;94.08;99175.81;4999035;28;20438;-68
2021/12/08 00:17:16;;;;;;;5.50;2.75;;;;;;;4.66;94.43;99169.75;5012085;28;20126;-67
2021/12/08 00:19:42;;;;;;;5.55;3.13;;;;;;;4.70;94.32;99168.91;5012197;28;20041;-69
2021/12/08 00:22:07;;;;;;;8.52;3.35;;;;;;;4.71;94.07;99165.44;5012249;28;20037;-68
2021/12/08 00:24:34;;;;;;;5.68;2.83;;;;;;;4.74;93.99;99171.56;5012027;28;20501;-66
2021/12/08 00:26:59;;;;;;;6.22;2.80;;;;;;;4.75;94.10;99175.03;5012050;28;20121;-66
2021/12/08 00:29:24;;;;;;;4.55;2.53;;;;;;;4.79;94.28;99184.69;5012159;28;20125;-67
2021/12/08 00:31:50;;;;;;;5.18;2.75;;;;;;;4.82;94.47;99186.44;5012101;28;20041;-69
2021/12/08 00:34:16;;;;;;;6.60;3.13;;;;;;;4.85;94.66;99184.72;5012020;28;20021;-66
2021/12/08 00:36:44;;;;;;;4.88;2.85;;;;;;;4.89;94.85;99181.28;5011930;28;20040;-67
2021/12/08 00:39:12;;;;;;;5.88;2.70;;;;;;;4.94;94.48;99189.16;5011899;28;20038;-67
2021/12/08 00:41:38;;;;;;;4.93;2.88;;;;;;;4.96;94.41;99179.56;5011917;28;20037;-67
2021/12/08 00:44:04;;;;;;;5.65;2.65;;;;;;;5.00;94.92;99184.81;5011911;28;20061;-67
2021/12/08 00:46:30;;;;;;;7.57;2.67;;;;;;;5.07;95.27;99167.41;5011699;28;20483;-68
2021/12/08 00:48:57;;;;;;;5.63;2.67;;;;;;;5.14;94.81;99173.53;5011771;28;20639;-68
2021/12/08 00:51:22;;;;;;;6.82;2.70;;;;;;;5.19;95.20;99170.13;5037692;28;20040;-67
2021/12/08 00:53:48;;;;;;;4.50;2.45;;;;;;;5.26;94.68;99174.50;5093663;28;20032;-68
2021/12/08 00:56:14;;;;;;;9.18;2.60;;;;;;;5.33;94.38;99171.91;5093532;28;20380;-67
2021/12/08 00:58:40;;;;;;;3.97;2.47;;;;;;;5.38;94.18;99178.06;5093580;28;20081;-67
2021/12/08 01:01:07;;;;;;;4.60;2.55;;;;;;;5.42;94.10;99185.06;5093562;28;20024;-67
2021/12/08 01:03:37;;;;;;;5.95;2.50;;;;;;;5.47;93.68;99191.19;5093414;28;20028;-67
2021/12/08 01:06:04;;;;;;;5.20;2.47;;;;;;;5.50;94.22;99201.69;5093067;28;20034;-67
2021/12/08 01:08:31;;;;;;;7.13;2.50;;;;;;;5.52;93.84;99197.31;5093496;28;20024;-67
2021/12/08 01:11:03;;;;;;;4.53;2.20;;;;;;;5.57;93.71;99206.09;5093488;28;20020;-67
2021/12/08 01:13:29;;;;;;;4.83;2.30;;;;;;;5.59;93.80;99203.47;5093606;28;20035;-67
2021/12/08 01:15:57;;;;;;;4.00;2.25;;;;;;;5.61;93.87;99220.06;5093385;28;20384;-67
2021/12/08 01:18:30;;;;;;;3.25;2.28;;;;;;;5.65;93.70;99207.00;5093251;28;20491;-67
2021/12/08 01:20:58;;;;;;;4.63;2.20;;;;;;;5.66;93.49;99213.13;5093620;28;20020;-67
2021/12/08 01:23:25;;;;;;;3.97;2.50;;;;;;;5.69;93.57;99213.97;5093314;28;20031;-66
2021/12/08 01:25:51;;;;;;;4.88;2.08;;;;;;;5.71;93.51;99211.38;5093073;28;20048;-67
2021/12/08 01:28:22;;;;;;;5.00;2.25;;;;;;;5.74;93.34;99211.41;5093291;28;20073;-67
2021/12/08 01:30:50;;;;;;;3.95;2.40;;;;;;;5.75;93.64;99223.63;5093294;28;20121;-67
2021/12/08 01:33:16;;;;;;;4.88;2.38;;;;;;;5.77;93.13;99217.50;5093281;28;20032;-67
2021/12/08 01:35:42;;;;;;;2.85;2.08;;;;;;;5.82;92.91;99222.75;5075061;28;20492;-67
2021/12/08 01:38:07;;;;;;;5.43;2.25;;;;;;;5.83;93.08;99214.06;5093128;28;20102;-67
2021/12/08 01:40:33;;;;;;;3.95;1.95;;;;;;;5.85;93.28;99220.16;5093281;28;20031;-67
2021/12/08 01:43:01;;;;;;;3.30;2.10;;;;;;;5.86;93.14;99221.03;5093022;28;20398;-66
2021/12/08 01:48:19;;;;;;;3.30;1.95;;;;;;;5.88;93.23;99235.91;5093114;28;20099;-67
2021/12/08 01:50:50;;;;;;;3.97;2.40;;;;;;;5.87;93.41;99235.91;5093154;28;20024;-66
2021/12/08 01:53:16;;;;;;;4.15;2.10;;;;;;;5.87;93.43;99235.91;5093035;28;20028;-67
2021/12/08 01:55:42;;;;;;;6.82;2.20;;;;;;;5.86;93.77;99242.00;5093058;28;20032;-67
2021/12/08 01:58:10;;;;;;;3.75;2.05;;;;;;;5.92;93.37;99249.94;5092658;28;20028;-66
2021/12/08 02:00:52;;;;;;;4.85;2.47;;;;;;;5.91;93.07;99240.28;5092921;28;20551;-67
2021/12/08 02:03:19;;;;;;;3.75;2.13;;;;;;;5.95;93.09;99234.19;5092901;28;20028;-67
2021/12/08 02:05:45;;;;;;;5.88;2.10;;;;;;;5.94;92.57;99238.56;5092967;28;20028;-67
2021/12/08 02:08:11;;;;;;;5.28;2.30;;;;;;;5.96;92.99;99244.72;5092835;28;20035;-67
2021/12/08 02:10:38;;;;;;;3.47;1.90;;;;;;;5.99;92.40;99246.47;5092819;28;20024;-67
2021/12/08 02:13:05;;;;;;;5.35;2.25;;;;;;;6.04;91.95;99247.38;5074581;28;20016;-67
2021/12/08 02:15:32;;;;;;;6.13;2.40;;;;;;;6.07;92.07;99260.47;5093019;28;20023;-66
2021/12/08 02:17:58;;;;;;;7.45;2.22;;;;;;;6.09;91.65;99257.88;5095947;28;20036;-67
2021/12/08 02:20:27;;;;;;;5.07;2.15;;;;;;;6.09;91.73;99264.00;5096735;28;20496;-67
2021/12/08 02:22:52;;;;;;;6.40;2.28;;;;;;;6.12;91.39;99284.09;5096546;28;20028;-67
2021/12/08 02:25:20;;;;;;;6.22;2.13;;;;;;;6.16;90.96;99273.59;5096230;28;20059;-66
2021/12/08 02:27:46;;;;;;;6.40;2.45;;;;;;;6.16;90.70;99273.59;5096224;28;20031;-67
2021/12/08 02:30:21;;;;;;;7.45;2.53;;;;;;;6.18;90.73;99286.75;5096444;28;20020;-67
2021/12/08 02:49:12;;;;;;;7.70;2.45;;;;;;;6.18;88.18;99279.75;5096094;28;20370;-67
2021/12/08 02:51:38;;;;;;;5.55;2.08;;;;;;;6.15;88.58;99281.47;5096114;28;20028;-67
2021/12/08 02:54:05;;;;;;;9.40;2.45;;;;;;;6.12;88.29;99302.44;5095938;28;20065;-66
2021/12/08 02:56:31;;;;;;;7.15;2.55;;;;;;;6.13;88.72;99296.34;5095701;28;20361;-66
2021/12/08 02:58:57;;;;;;;6.22;2.20;;;;;;;6.11;88.65;99290.22;5095860;28;20027;-66
2021/12/08 03:01:24;;;;;;;6.22;2.10;;;;;;;6.07;89.01;99291.06;5095711;28;20028;-67
2021/12/08 03:03:50;;;;;;;7.50;2.20;;;;;;;6.05;88.78;99291.06;5095790;28;20032;-67
2021/12/08 03:06:20;;;;;;;6.05;2.40;;;;;;;6.02;89.13;99291.91;5095787;28;20062;-66
2021/12/08 03:08:48;;;;;;;11.43;2.92;;;;;;;6.02;89.13;99289.28;5095766;28;20024;-67
2021/12/08 03:11:13;;;;;;;10.85;2.60;;;;;;;6.03;89.07;99293.66;5095580;28;20020;-66
2021/12/08 03:13:43;;;;;;;8.85;2.40;;;;;;;6.03;89.78;99282.31;5095512;28;20020;-67
2021/12/08 03:16:10;;;;;;;7.82;2.80;;;;;;;6.03;89.51;99288.41;5095499;28;20031;-67
2021/12/08 03:18:40;;;;;;;8.68;2.40;;;;;;;6.06;89.78;99292.81;5095631;28;20024;-66
2021/12/08 03:21:08;;;;;;;6.45;2.25;;;;;;;6.08;89.64;99300.66;5095515;28;20476;-66
2021/12/08 03:24:26;;;;;;;11.05;2.90;;;;;;;6.10;88.96;99305.06;5095355;28;20419;-66
2021/12/08 03:26:31;;;;;;;9.20;2.45;;;;;;;6.13;88.15;99312.97;5087520;28;20044;-67
2021/12/08 03:29:03;;;;;;;7.65;2.20;;;;;;;6.14;87.59;99312.06;5094809;28;20031;-66
2021/12/08 03:31:33;;;;;;;10.27;2.53;;;;;;;6.14;87.25;99309.44;5095270;28;20043;-66
2021/12/08 03:33:59;;;;;;;8.70;2.53;;;;;;;6.18;86.69;99331.31;5095192;28;20028;-66
2021/12/08 03:36:24;;;;;;;6.18;2.05;;;;;;;6.18;86.67;99320.84;5095100;28;20353;-66
2021/12/08 03:38:50;;;;;;;5.65;2.20;;;;;;;6.19;86.06;99322.59;5095179;28;20024;-66
2021/12/08 03:41:15;;;;;;;4.97;2.25;;;;;;;6.18;85.68;99319.09;5094967;28;20028;-66
2021/12/08 03:43:41;;;;;;;7.57;2.50;;;;;;;6.15;85.61;99313.81;5095108;28;20035;-66
2021/12/08 03:46:11;;;;;;;8.45;2.28;;;;;;;6.14;85.17;99309.44;5094982;28;20024;-66
2021/12/08 03:48:46;;;;;;;5.80;2.10;;;;;;;6.10;85.10;99307.69;5094961;28;20025;-66
2021/12/08 03:51:12;;;;;;;5.45;2.08;;;;;;;6.09;85.03;99310.31;5094833;28;20080;-66
2021/12/08 03:53:37;;;;;;;5.53;2.10;;;;;;;6.04;84.51;99326.03;5094838;28;20126;-66
2021/12/08 03:56:04;;;;;;;12.25;2.20;;;;;;;6.01;84.47;99321.63;5094691;28;20024;-66
2021/12/08 03:58:29;;;;;;;8.02;2.50;;;;;;;5.96;84.15;99333.84;5094664;28;20580;-66
2021/12/08 04:00:57;;;;;;;6.93;2.10;;;;;;;5.93;83.92;99327.72;5094691;28;20122;-66
2021/12/08 04:03:25;;;;;;;10.95;3.38;;;;;;;5.91;84.29;99334.66;5094589;28;20016;-66
2021/12/08 04:06:00;;;;;;;7.78;1.90;;;;;;;5.89;84.13;99336.41;5094509;28;20378;-66
2021/12/08 04:08:45;;;;;;;7.43;2.20;;;;;;;5.83;83.84;99334.63;5094383;28;20028;-66
2021/12/08 04:11:12;;;;;;;6.47;2.25;;;;;;;5.77;83.96;99335.44;5094784;28;20073;-66
2021/12/08 04:13:44;;;;;;;5.15;2.25;;;;;;;5.72;84.30;99341.53;5094647;28;20020;-66
2021/12/08 04:16:10;;;;;;;;;;;;;;;5.71;84.34;99343.28;5094917;28;20032;-66
2021/12/08 04:18:43;;;;;;;7.50;2.15;;;;;;;5.64;84.17;99338.88;5094437;28;19915;-66
2021/12/08 04:21:09;;;;;;;8.60;2.13;;;;;;;5.60;84.62;99336.22;5094289;28;20028;-66
2021/12/08 04:23:38;;;;;;;7.93;2.10;;;;;;;5.53;84.75;99341.44;5094272;28;20032;-66
2021/12/08 04:26:10;;;;;;;4.65;2.10;;;;;;;5.51;85.08;99342.28;5093778;28;20040;-66
2021/12/08 04:28:36;;;;;;;5.75;2.20;;;;;;;5.45;85.12;99345.75;5093986;28;20047;-66
2021/12/08 04:31:17;;;;;;;8.07;2.50;;;;;;;5.41;85.51;99349.19;5075877;28;20206;-66
2021/12/08 04:33:45;;;;;;;12.63;2.30;;;;;;;5.40;85.74;99351.81;5094046;28;20422;-66
2021/12/08 04:36:14;;;;;;;9.27;2.53;;;;;;;5.40;86.30;99365.78;5094221;28;20087;-65
2021/12/08 04:38:44;;;;;;;6.70;2.53;;;;;;;5.39;85.80;99361.41;5093794;28;20054;-66
2021/12/08 04:41:15;;;;;;;8.48;2.63;;;;;;;5.38;85.78;99361.41;5093693;28;20039;-66
2021/12/08 04:43:56;;;;;;;7.78;2.15;;;;;;;5.41;85.21;99353.56;5093773;28;20358;-66
2021/12/08 05:00:29;;;;;;;7.70;2.00;;;;;;;5.32;83.70;99361.38;5093713;28;20096;-66
2021/12/08 05:06:03;;;;;;;7.30;2.05;;;;;;;5.25;83.65;99373.50;5093704;28;20097;-66
2021/12/08 05:08:41;;;;;;;10.57;2.20;;;;;;;5.21;83.21;99370.00;5093466;28;20070;-65
2021/12/08 05:11:15;;;;;;;6.22;2.30;;;;;;;5.20;83.44;99376.09;5093763;28;20028;-66
2021/12/08 05:13:43;;;;;;;7.55;2.30;;;;;;;5.17;83.10;99383.91;5093321;28;20060;-66
2021/12/08 05:16:10;;;;;;;10.30;2.40;;;;;;;5.23;83.21;99385.72;5093284;28;20027;-66
2021/12/08 05:18:42;;;;;;;8.02;2.03;;;;;;;5.25;82.57;99381.38;5093422;28;20024;-66
2021/12/08 05:21:14;;;;;;;11.73;2.33;;;;;;;5.26;82.60;99386.59;5093329;28;20484;-66
2021/12/08 05:23:45;;;;;;;8.75;2.33;;;;;;;5.29;82.84;99380.53;5093339;28;20103;-66
2021/12/08 05:26:17;;;;;;;8.82;2.20;;;;;;;5.29;82.49;99388.38;5092913;28;20401;-66
2021/12/08 05:28:46;;;;;;;6.82;2.28;;;;;;;5.28;83.35;99382.28;5093254;28;20025;-66
2021/12/08 05:31:18;;;;;;;6.93;2.10;;;;;;;5.25;82.93;99377.00;5093097;28;20029;-66
2021/12/08 05:33:45;;;;;;;11.65;2.53;;;;;;;5.28;82.82;99382.28;5093229;28;20384;-66
2021/12/08 05:36:12;;;;;;;7.68;2.08;;;;;;;5.30;82.06;99381.41;5093181;28;20028;-66
2021/12/08 05:38:39;;;;;;;13.93;2.15;;;;;;;5.31;82.00;99381.44;5093036;28;20024;-66
2021/12/08 05:41:10;;;;;;;6.03;1.95;;;;;;;5.31;82.19;99389.28;5093047;28;20032;-66
2021/12/08 05:43:38;;;;;;;7.93;2.05;;;;;;;5.33;81.63;99402.41;5093136;28;20059;-66
2021/12/08 05:46:04;;;;;;;8.95;1.92;;;;;;;5.28;82.42;99405.84;5092992;28;20031;-66
2021/12/08 05:48:32;;;;;;;7.57;2.28;;;;;;;5.30;81.97;99405.84;5093397;28;20050;-66
2021/12/08 05:51:15;;;;;;;9.45;2.30;;;;;;;5.30;81.80;99395.38;5076347;28;20601;-66
2021/12/08 05:53:43;;;;;;;11.68;2.40;;;;;;;5.25;82.21;99411.03;5097038;28;20464;-65
2021/12/08 05:56:09;;;;;;;6.47;2.20;;;;;;;5.22;82.46;99405.81;5097081;28;20459;-65
2021/12/08 05:58:36;;;;;;;9.52;2.25;;;;;;;5.21;82.93;99397.91;5096920;28;20517;-65
2021/12/08 06:01:19;;;;;;;8.93;2.03;;;;;;;5.18;82.60;99401.41;5096952;28;20024;-66
2021/12/08 06:03:49;;;;;;;11.75;2.90;;;;;;;5.16;82.62;99400.50;5096953;28;20030;-66
2021/12/08 06:06:18;;;;;;;8.38;2.38;;;;;;;5.17;82.54;99411.84;5096649;28;20085;-65
2021/12/08 06:08:44;;;;;;;13.90;2.58;;;;;;;5.15;82.58;99409.22;5096752;28;20465;-66
2021/12/08 06:11:11;;;;;;;10.95;2.60;;;;;;;5.11;82.65;99435.38;5096890;28;20059;-65
2021/12/08 06:13:38;;;;;;;12.43;2.50;;;;;;;5.09;83.02;99421.38;5096770;28;20028;-66
2021/12/08 06:16:05;;;;;;;11.00;2.58;;;;;;;5.06;83.26;99435.31;5096454;28;20040;-66
2021/12/08 06:18:37;;;;;;;10.98;2.83;;;;;;;5.05;83.26;99438.78;5096439;28;20457;-66
2021/12/08 06:21:12;;;;;;;8.68;2.40;;;;;;;5.06;83.07;99439.69;5096833;28;20089;-65
2021/12/08 06:23:39;;;;;;;11.35;2.60;;;;;;;5.04;82.48;99444.88;5096493;28;20096;-66
2021/12/08 06:26:06;;;;;;;9.80;2.78;;;;;;;5.05;82.92;99451.88;5096337;28;20485;-66
2021/12/08 06:28:32;;;;;;;10.77;2.47;;;;;;;5.04;82.39;99455.34;5096386;28;20077;-66
2021/12/08 06:30:58;;;;;;;14.40;2.80;;;;;;;5.08;82.87;99461.50;5096446;28;20513;-66
2021/12/08 06:33:23;;;;;;;9.40;2.33;;;;;;;5.02;82.77;99457.09;5096168;28;20024;-66
2021/12/08 06:35:58;;;;;;;11.40;2.55;;;;;;;5.03;82.94;99464.06;5096324;28;20059;-66
2021/12/08 06:38:24;;;;;;;11.00;3.00;;;;;;;5.03;82.76;99462.34;5096412;28;20162;-65
2021/12/08 06:41:13;;;;;;;8.30;2.53;;;;;;;5.01;82.73;99456.22;5096319;28;20021;-65
2021/12/08 06:43:46;;;;;;;9.27;2.55;;;;;;;5.00;81.96;99472.75;5096332;28;20040;-65
2021/12/08 06:46:14;;;;;;;8.68;2.75;;;;;;;5.00;82.02;99472.75;5096056;28;20028;-65
2021/12/08 06:48:44;;;;;;;11.23;2.35;;;;;;;4.99;82.05;99463.16;5096382;28;20103;-65
2021/12/08 06:51:14;;;;;;;7.03;2.08;;;;;;;5.00;82.10;99457.06;5096312;28;20024;-65
2021/12/08 06:53:43;;;;;;;11.60;2.70;;;;;;;4.97;82.03;99464.03;5077855;28;20020;-65
2021/12/08 06:56:19;;;;;;;10.15;2.67;;;;;;;4.95;81.69;99464.00;5095923;28;20043;-65
2021/12/08 06:58:51;;;;;;;15.70;2.88;;;;;;;4.90;81.43;99476.16;5095773;28;20050;-65
2021/12/08 07:04:12;;;;;;;13.27;2.80;;;;;;;4.83;82.50;99471.69;5095028;28;20106;-65
2021/12/08 07:07:19;;;;;;;10.50;2.45;;;;;;;4.80;81.79;99476.91;5095691;28;20618;-65
2021/12/08 07:09:40;;;;;;;12.77;2.55;;;;;;;4.76;82.11;99481.22;5094565;28;20066;-65
2021/12/08 07:12:26;;;;;;;11.27;2.47;;;;;;;4.74;82.21;99488.16;5095545;28;20365;-66
2021/12/08 07:15:05;;;;;;;8.20;2.25;;;;;;;4.69;83.06;99496.81;5095077;28;20044;-65
2021/12/08 07:17:34;;;;;;;6.55;2.10;;;;;;;4.65;82.66;99509.00;5095327;28;20024;-66
2021/12/08 07:20:14;;;;;;;14.85;2.90;;;;;;;4.63;82.27;99508.09;5095609;28;20028;-66
2021/12/08 07:22:43;;;;;;;12.32;2.42;;;;;;;4.64;82.54;99507.25;5095301;28;20455;-65
2021/12/08 07:25:12;;;;;;;9.90;2.70;;;;;;;4.60;82.19;99510.66;5095353;28;20505;-65
2021/12/08 07:27:37;;;;;;;12.00;2.75;;;;;;;4.63;82.35;99515.06;5095116;28;20036;-65
2021/12/08 07:30:11;;;;;;;13.77;2.50;;;;;;;4.59;82.11;99524.63;5095148;28;20028;-65
2021/12/08 07:32:38;;;;;;;13.27;2.60;;;;;;;4.58;82.14;99522.84;5095246;28;20020;-66
2021/12/08 07:35:11;;;;;;;12.80;2.85;;;;;;;4.51;82.46;99521.00;5095186;28;20099;-65
2021/12/08 07:37:37;;;;;;;10.40;2.70;;;;;;;4.53;82.70;99532.38;5095148;28;20028;-65
2021/12/08 07:40:08;;;;;;;11.10;2.28;;;;;;;4.50;82.08;99528.00;5095008;28;20473;-65
2021/12/08 07:42:39;;;;;;;11.85;2.38;;;;;;;4.46;83.10;99541.00;5094746;28;20028;-66
2021/12/08 07:45:09;;;;;;;11.10;2.13;;;;;;;4.46;82.28;99541.00;5094843;28;20107;-65
2021/12/08 07:47:36;;;;;;;6.78;2.10;;;;;;;4.42;83.44;99544.44;5094899;28;20028;-65
2021/12/08 07:50:33;;;;;;;10.88;2.38;;;;;;;4.47;82.41;99561.06;5094924;28;20036;-65
2021/12/08 07:53:03;;;;;;;10.30;2.47;;;;;;;4.43;82.41;99551.41;5094656;28;20039;-66
2021/12/08 07:55:34;;;;;;;7.80;2.35;;;;;;;4.46;82.44;99541.88;5094760;28;20066;-65
2021/12/08 07:58:12;;;;;;;6.63;2.10;;;;;;;4.47;82.15;99556.72;5094721;28;20553;-65
2021/12/08 08:00:43;;;;;;;11.85;2.90;;;;;;;4.46;82.14;99557.56;5094697;28;20032;-65
2021/12/08 08:03:11;;;;;;;6.28;1.92;;;;;;;4.49;82.66;99549.75;5094776;28;20040;-65
2021/12/08 08:05:39;;;;;;;10.35;2.30;;;;;;;4.52;81.79;99548.91;5094264;28;20020;-65
2021/12/08 08:08:08;;;;;;;9.50;2.47;;;;;;;4.53;82.41;99533.25;5094409;28;20058;-65
2021/12/08 08:10:41;;;;;;;9.02;2.03;;;;;;;4.58;82.12;99562.06;5094518;28;20031;-65
2021/12/08 08:13:08;;;;;;;8.90;2.20;;;;;;;4.56;81.77;99544.63;5094382;28;20062;-65
2021/12/08 08:15:40;;;;;;;13.07;2.72;;;;;;;4.60;81.20;99569.97;5094341;28;20073;-66
2021/12/08 08:18:10;;;;;;;8.87;2.30;;;;;;;4.60;82.02;99544.69;5094310;28;20024;-65
2021/12/08 08:20:40;;;;;;;7.28;2.70;;;;;;;4.60;81.33;99555.16;5094093;28;20677;-65
2021/12/08 08:23:06;;;;;;;8.80;2.30;;;;;;;4.61;81.83;99553.41;5094346;28;20055;-65
2021/12/08 08:25:36;;;;;;;7.88;2.40;;;;;;;4.68;81.92;99557.88;5094212;28;20048;-65
2021/12/08 08:28:04;;;;;;;7.75;2.33;;;;;;;4.67;81.17;99557.00;5093798;28;20059;-65
2021/12/08 08:30:43;;;;;;;6.93;2.20;;;;;;;4.67;81.23;99567.47;5094407;28;20405;-65
2021/12/08 08:33:11;;;;;;;10.98;2.70;;;;;;;4.71;80.92;99569.25;5093784;28;20024;-65
2021/12/08 08:35:46;;;;;;;10.07;2.20;;;;;;;4.72;80.91;99557.94;5094176;28;20552;-65
2021/12/08 08:38:21;;;;;;;9.98;2.17;;;;;;;4.75;80.78;99557.97;5093881;28;20058;-65
2021/12/08 08:40:51;;;;;;;8.48;2.03;;;;;;;4.76;80.45;99554.50;5093797;28;20056;-65
2021/12/08 08:43:18;;;;;;;7.93;2.25;;;;;;;4.78;81.00;99549.28;5093816;28;20028;-65
2021/12/08 08:45:43;;;;;;;7.35;2.35;;;;;;;4.80;80.55;99544.03;5093817;28;20024;-64
2021/12/08 08:48:12;;;;;;;9.73;2.50;;;;;;;4.85;80.18;99545.00;5093731;28;20494;-65
2021/12/08 08:50:41;;;;;;;7.10;2.15;;;;;;;4.91;79.67;99537.22;5093845;28;20105;-65
2021/12/08 08:53:17;;;;;;;12.00;2.60;;;;;;;5.12;78.51;99532.25;5094032;28;20385;-64
2021/12/08 08:55:49;;;;;;;8.25;2.30;;;;;;;5.34;78.29;99535.09;5093874;28;20047;-65
2021/12/08 08:58:18;;;;;;;8.07;2.40;;;;;;;5.41;77.31;99539.56;5093398;28;20020;-64
2021/12/08 09:00:50;;;;;;;8.23;2.30;;;;;;;5.44;77.09;99550.06;5093890;28;20024;-65
2021/12/08 09:03:22;;;;;;;5.78;2.17;;;;;;;5.49;77.32;99553.59;5093620;28;20460;-65
2021/12/08 09:05:58;;;;;;;9.80;3.00;;;;;;;5.62;75.87;99563.34;5093643;28;20100;-65
2021/12/08 09:08:30;;;;;;;7.35;2.30;;;;;;;5.74;75.98;99563.47;5093573;28;20028;-65
2021/12/08 09:11:15;;;;;;;6.20;2.13;;;;;;;5.90;76.36;99559.22;5093607;28;20095;-65
2021/12/08 09:13:54;;;;;;;9.38;2.38;;;;;;;6.02;74.86;99562.00;5093366;28;20484;-65
2021/12/08 09:16:28;;;;;;;5.13;1.83;;;;;;;6.18;74.36;99555.13;5093371;28;20381;-65
2021/12/08 09:19:17;;;;;;;7.07;2.20;;;;;;;6.35;74.65;99557.00;5093391;28;20108;-65
2021/12/08 09:21:57;;;;;;;8.52;2.38;;;;;;;6.40;73.35;99550.91;5093503;28;20032;-65
2021/12/08 09:24:33;;;;;;;9.32;2.33;;;;;;;6.49;73.61;99556.22;5093063;28;20106;-65
2021/12/08 09:27:01;;;;;;;7.75;2.50;;;;;;;6.80;71.73;99568.63;5092685;28;20381;-65
2021/12/08 09:29:43;;;;;;;8.73;2.50;;;;;;;6.95;71.09;99574.84;5093312;28;20035;-65
2021/12/08 09:32:17;;;;;;;9.43;2.70;;;;;;;6.96;71.10;99595.00;5093246;28;20469;-64
2021/12/08 09:34:54;;;;;;;12.05;2.92;;;;;;;7.02;69.79;99576.66;5093207;28;20135;-65
2021/12/08 09:37:22;;;;;;;14.05;3.40;;;;;;;7.31;70.31;99585.50;5093049;28;20502;-65
2021/12/08 09:39:49;;;;;;;7.70;2.30;;;;;;;7.76;69.65;99585.63;5093232;28;20024;-65
2021/12/08 09:42:24;;;;;;;6.65;2.17;;;;;;;8.15;67.55;99589.19;5093196;28;20028;-65
2021/12/08 09:44:59;;;;;;;13.70;2.30;;;;;;;8.15;66.27;99580.41;5093145;28;20031;-65
2021/12/08 09:47:29;;;;;;;6.82;1.98;;;;;;;7.97;67.33;99589.19;5092905;28;20081;-65
2021/12/08 09:49:58;;;;;;;8.95;2.15;;;;;;;7.76;67.63;99577.75;5093180;28;20020;-65
2021/12/08 09:52:27;;;;;;;7.63;2.15;;;;;;;7.79;68.50;99574.22;5093038;28;20027;-65
2021/12/08 09:54:54;;;;;;;8.30;2.17;;;;;;;7.83;67.52;99572.47;5092963;28;20465;-65
2021/12/08 09:57:20;;;;;;;10.50;2.50;;;;;;;7.82;68.55;99568.09;5092916;28;20035;-65
2021/12/08 09:59:47;;;;;;;7.63;2.13;;;;;;;7.95;68.15;99551.47;5093092;28;20119;-65
2021/12/08 10:02:18;;;;;;;8.65;2.17;;;;;;;8.04;67.95;99560.22;5093109;28;20024;-65
2021/12/08 10:04:44;;;;;;;7.80;2.37;;;;;;;8.10;67.88;99554.09;5093141;28;20481;-65
2021/12/08 10:07:10;;;;;;;5.43;2.00;;;;;;;8.12;68.05;99548.84;5092872;28;20028;-64
2021/12/08 10:09:35;;;;;;;6.13;2.05;;;;;;;8.21;67.41;99538.31;5074739;28;20107;-65
2021/12/08 10:12:02;;;;;;;13.40;2.40;;;;;;;8.26;66.84;99547.97;5092806;28;20024;-64
2021/12/08 10:14:28;;;;;;;7.85;2.20;;;;;;;8.22;66.78;99543.59;5093198;28;20043;-65
2021/12/08 10:16:54;;;;;;;8.55;2.20;;;;;;;8.20;65.79;99544.44;5092815;28;20465;-65
2021/12/08 10:19:19;;;;;;;6.32;2.15;;;;;;;8.20;65.15;99545.31;5092868;28;20027;-65
2021/12/08 10:21:46;;;;;;;7.00;1.98;;;;;;;8.20;65.62;99537.44;5092797;28;20031;-65
2021/12/08 10:24:22;;;;;;;5.78;1.77;;;;;;;8.28;66.13;99526.91;5074873;28;20104;-65
2021/12/08 10:26:51;;;;;;;8.02;2.60;;;;;;;8.22;65.74;99529.53;5092256;28;20447;-65
2021/12/08 10:29:24;;;;;;;9.82;2.42;;;;;;;8.38;66.89;99518.13;5092803;28;20029;-64
2021/12/08 10:31:52;;;;;;;8.85;2.38;;;;;;;8.50;65.20;99533.91;5075047;28;20032;-65
2021/12/08 10:34:26;;;;;;;9.85;2.35;;;;;;;8.57;65.69;99534.78;5092777;28;20121;-66
2021/12/08 10:37:10;;;;;;;7.10;2.20;;;;;;;8.55;65.30;99528.63;5090240;28;20032;-66
2021/12/08 10:39:47;;;;;;;8.15;2.40;;;;;;;8.44;65.18;99525.16;5078016;28;20032;-67
2021/12/08 10:42:18;;;;;;;10.38;2.13;;;;;;;8.50;65.93;99525.13;5096078;28;20365;-67
2021/12/08 10:45:08;;;;;;;8.50;2.17;;;;;;;8.60;66.18;99518.97;5096425;28;20357;-66
2021/12/08 10:47:44;;;;;;;6.90;2.38;;;;;;;8.68;65.02;99516.31;5096201;28;20054;-64
2021/12/08 10:56:13;;;;;;;5.55;2.03;;;;;;;8.37;65.23;99521.66;5096222;28;20090;-64
2021/12/08 10:58:57;;;;;;;6.60;2.38;;;;;;;8.19;64.78;99525.16;5096117;28;20069;-65
2021/12/08 11:01:25;;;;;;;5.75;1.80;;;;;;;8.11;66.06;99531.31;5095826;28;20063;-65
2021/12/08 11:04:00;;;;;;;6.18;2.33;;;;;;;8.00;66.19;99537.41;5095847;28;20070;-65
2021/12/08 11:06:30;;;;;;;7.28;2.17;;;;;;;8.14;67.24;99533.94;5095645;28;20028;-64
2021/12/08 11:08:56;;;;;;;6.00;2.10;;;;;;;8.19;66.27;99545.34;5095733;28;20073;-64
2021/12/08 11:11:31;;;;;;;5.03;1.73;;;;;;;8.28;65.97;99569.88;5095719;28;20028;-64
2021/12/08 11:14:03;;;;;;;5.88;2.00;;;;;;;8.22;66.67;99553.19;5095611;28;20031;-64
2021/12/08 11:16:33;;;;;;;7.15;2.30;;;;;;;8.26;66.39;99563.75;5095575;28;20032;-64
2021/12/08 11:19:11;;;;;;;6.75;2.10;;;;;;;8.32;66.64;99573.38;5095386;28;20392;-64
2021/12/08 11:21:39;;;;;;;7.28;2.05;;;;;;;8.30;66.19;99583.03;5095734;28;20072;-64
2021/12/08 11:24:20;;;;;;;7.00;2.10;;;;;;;8.31;66.03;99586.53;5095503;28;20028;-64
2021/12/08 11:26:50;;;;;;;6.82;2.17;;;;;;;8.32;65.45;99578.66;5077059;28;20044;-64
2021/12/08 11:29:22;;;;;;;5.93;2.30;;;;;;;8.32;66.77;99576.03;5095296;28;20016;-65
2021/12/08 11:31:54;;;;;;;6.03;2.90;;;;;;;8.24;66.70;99591.81;5095307;28;20084;-64
2021/12/08 11:34:24;;;;;;;8.27;2.00;;;;;;;8.15;65.58;99589.19;5095222;28;20410;-63
2021/12/08 11:36:55;;;;;;;8.45;2.20;;;;;;;7.94;66.68;99592.66;5095377;28;20040;-66
2021/12/08 11:39:26;;;;;;;7.05;2.35;;;;;;;7.75;67.29;99596.13;5096587;28;20028;-63
2021/12/08 11:42:02;;;;;;;6.35;2.20;;;;;;;7.74;68.45;99591.75;5096292;28;20024;-67
2021/12/08 11:44:29;;;;;;;6.30;2.08;;;;;;;7.64;68.04;99611.91;5098048;28;20024;-65
2021/12/08 11:46:58;;;;;;;5.60;2.00;;;;;;;7.50;68.29;99618.88;5098329;28;20024;-65
2021/12/08 11:49:25;;;;;;;9.73;2.22;;;;;;;7.42;69.56;99604.81;5098652;28;20030;-65
2021/12/08 11:51:54;;;;;;;9.05;2.35;;;;;;;7.43;68.09;99611.84;5095625;28;20073;-65
2021/12/08 11:54:42;;;;;;;7.30;2.10;;;;;;;7.47;69.65;99610.97;5095133;28;20062;-65
2021/12/08 11:57:17;;;;;;;8.30;2.83;;;;;;;7.56;69.69;99618.88;5094762;28;20028;-65
2021/12/08 11:59:56;;;;;;;7.00;2.33;;;;;;;7.57;68.61;99619.75;5094765;28;20486;-65
2021/12/08 12:02:26;;;;;;;7.70;2.22;;;;;;;7.55;70.09;99627.66;5094771;28;20028;-64
2021/12/08 12:04:52;;;;;;;8.70;2.95;;;;;;;7.46;67.94;99630.25;5095026;28;20070;-65
2021/12/08 12:07:18;;;;;;;5.43;2.05;;;;;;;7.46;68.97;99623.25;5094367;28;20031;-65
2021/12/08 12:09:45;;;;;;;6.95;2.10;;;;;;;7.49;69.13;99639.03;5094761;28;20048;-65
2021/12/08 12:12:11;;;;;;;5.75;1.98;;;;;;;7.53;68.36;99639.88;5094702;28;20020;-65
2021/12/08 12:14:37;;;;;;;5.90;1.95;;;;;;;7.53;68.67;99638.13;5094558;28;20032;-65
2021/12/08 12:17:03;;;;;;;4.65;2.20;;;;;;;7.55;69.33;99639.91;5094348;28;20039;-65
2021/12/08 12:19:35;;;;;;;6.88;2.30;;;;;;;7.56;68.24;99646.91;5094424;28;20027;-65
2021/12/08 12:22:19;;;;;;;6.70;2.05;;;;;;;7.57;68.68;99651.31;5094310;28;20051;-62
2021/12/08 12:25:17;;;;;;;7.35;2.13;;;;;;;7.55;68.63;99655.69;5094246;28;20040;-65
2021/12/08 12:27:58;;;;;;;9.40;2.10;;;;;;;7.52;69.36;99669.69;5094256;28;20036;-65
2021/12/08 12:30:39;;;;;;;8.48;2.10;;;;;;;7.43;69.62;99673.16;5094129;28;20392;-65
2021/12/08 12:33:18;;;;;;;5.57;2.10;;;;;;;7.40;69.15;99664.38;5094153;28;20032;-64
2021/12/08 12:35:52;;;;;;;6.90;2.20;;;;;;;7.38;69.72;99676.63;5094089;28;20031;-62
2021/12/08 12:38:31;;;;;;;5.18;1.92;;;;;;;7.41;70.38;99684.50;5094007;28;20034;-62
2021/12/08 12:40:57;;;;;;;8.32;2.40;;;;;;;7.44;70.06;99676.66;5093839;28;20392;-62
2021/12/08 12:43:33;;;;;;;6.80;2.10;;;;;;;7.48;70.91;99681.94;5093855;28;20545;-62
2021/12/08 12:46:14;;;;;;;5.47;2.10;;;;;;;7.42;69.42;99687.19;5093952;28;20039;-62